sensor_id;sensor_type;location;lat;lon;timestamp;pressure;altitude;pressure_sealevel;temperature;humidity
3428;BME280;1727;42.624;23.406;2023-04-27T00:00:03;94547.94;;;9.28;64.66
3428;BME280;1727;42.624;23.406;2023-04-27T00:02:35;94552.22;;;9.29;65.53
3428;BME280;1727;42.624;23.406;2023-04-27T00:05:02;94553.63;;;9.34;64.38
3428;BME280;1727;42.624;23.406;2023-04-27T00:07:29;94546.97;;;9.29;64.54
3428;BME280;1727;42.624;23.406;2023-04-27T00:09:58;94557.19;;;9.32;64.75
3428;BME280;1727;42.624;23.406;2023-04-27T00:12:24;94561.06;;;9.38;65.39
3428;BME280;1727;42.624;23.406;2023-04-27T00:14:51;94558.84;;;9.34;64.29
3428;BME280;1727;42.624;23.406;2023-04-27T00:17:18;94555.47;;;9.22;64.18
3428;BME280;1727;42.624;23.406;2023-04-27T00:19:45;94559.03;;;9.21;66.29
3428;BME280;1727;42.624;23.406;2023-04-27T00:22:12;94555.34;;;9.23;65.19
3428;BME280;1727;42.624;23.406;2023-04-27T00:24:39;94559.03;;;9.21;64.92
3428;BME280;1727;42.624;23.406;2023-04-27T00:27:08;94564.59;;;9.27;64.92
3428;BME280;1727;42.624;23.406;2023-04-27T00:29:37;94568.06;;;9.28;65.38
3428;BME280;1727;42.624;23.406;2023-04-27T00:32:07;94564.59;;;9.27;65.25
3428;BME280;1727;42.624;23.406;2023-04-27T00:34:34;94563.19;;;9.23;64.30
3428;BME280;1727;42.624;23.406;2023-04-27T00:37:00;94573.22;;;9.18;64.59
3428;BME280;1727;42.624;23.406;2023-04-27T00:39:27;94567.56;;;9.13;63.98
3428;BME280;1727;42.624;23.406;2023-04-27T00:41:54;94573.63;;;9.14;64.52
3428;BME280;1727;42.624;23.406;2023-04-27T00:44:23;94569.16;;;9.05;64.27
3428;BME280;1727;42.624;23.406;2023-04-27T00:46:50;94579.19;;;8.99;64.12
3428;BME280;1727;42.624;23.406;2023-04-27T00:49:17;94577.06;;;8.93;64.25
3428;BME280;1727;42.624;23.406;2023-04-27T00:51:45;94575.03;;;8.97;64.80
3428;BME280;1727;42.624;23.406;2023-04-27T00:54:12;94570.50;;;8.99;65.82
3428;BME280;1727;42.624;23.406;2023-04-27T00:56:40;94575.75;;;8.99;64.68
3428;BME280;1727;42.624;23.406;2023-04-27T00:59:07;94576.44;;;9.01;64.03
3428;BME280;1727;42.624;23.406;2023-04-27T01:01:35;94578.50;;;8.97;64.54
3428;BME280;1727;42.624;23.406;2023-04-27T01:04:02;94583.91;;;8.85;64.79
3428;BME280;1727;42.624;23.406;2023-04-27T01:06:29;94580.84;;;8.80;65.38
3428;BME280;1727;42.624;23.406;2023-04-27T01:08:56;94578.47;;;8.77;65.61
3428;BME280;1727;42.624;23.406;2023-04-27T01:11:23;94581.59;;;8.71;64.84
3428;BME280;1727;42.624;23.406;2023-04-27T01:13:50;94585.09;;;8.60;65.67
3428;BME280;1727;42.624;23.406;2023-04-27T01:16:17;94587.63;;;8.50;65.79
3428;BME280;1727;42.624;23.406;2023-04-27T01:18:46;94595.34;;;8.52;67.20
3428;BME280;1727;42.624;23.406;2023-04-27T01:21:13;94582.97;;;8.54;66.58
3428;BME280;1727;42.624;23.406;2023-04-27T01:23:41;94584.38;;;8.58;67.16
3428;BME280;1727;42.624;23.406;2023-04-27T01:26:08;94584.97;;;8.61;66.81
3428;BME280;1727;42.624;23.406;2023-04-27T01:28:36;94591.91;;;8.51;64.87
3428;BME280;1727;42.624;23.406;2023-04-27T01:31:03;94587.44;;;8.42;65.69
3428;BME280;1727;42.624;23.406;2023-04-27T01:33:29;94592.44;;;8.34;66.06
3428;BME280;1727;42.624;23.406;2023-04-27T01:35:56;94594.44;;;8.30;66.14
3428;BME280;1727;42.624;23.406;2023-04-27T01:38:23;94592.19;;;8.26;66.56
3428;BME280;1727;42.624;23.406;2023-04-27T01:40:51;94594.84;;;8.15;66.90
3428;BME280;1727;42.624;23.406;2023-04-27T01:43:19;94595.06;;;8.23;66.78
3428;BME280;1727;42.624;23.406;2023-04-27T01:45:46;94596.25;;;8.19;66.65
3428;BME280;1727;42.624;23.406;2023-04-27T01:48:13;94601.69;;;8.27;66.25
3428;BME280;1727;42.624;23.406;2023-04-27T01:50:40;94601.94;;;8.35;66.04
3428;BME280;1727;42.624;23.406;2023-04-27T01:53:07;94597.53;;;8.35;66.01
3428;BME280;1727;42.624;23.406;2023-04-27T01:55:34;94599.44;;;8.33;65.82
3428;BME280;1727;42.624;23.406;2023-04-27T01:58:02;94599.53;;;8.32;65.30
3428;BME280;1727;42.624;23.406;2023-04-27T02:00:29;94599.47;;;8.22;65.63
3428;BME280;1727;42.624;23.406;2023-04-27T02:02:56;94606.38;;;8.12;66.04
3428;BME280;1727;42.624;23.406;2023-04-27T02:05:24;94602.22;;;8.10;66.33
3428;BME280;1727;42.624;23.406;2023-04-27T02:07:51;94607.69;;;8.06;66.25
3428;BME280;1727;42.624;23.406;2023-04-27T02:10:18;94604.72;;;8.00;66.85
3428;BME280;1727;42.624;23.406;2023-04-27T02:12:46;94603.91;;;7.99;67.02
3428;BME280;1727;42.624;23.406;2023-04-27T02:15:15;94610.66;;;8.02;66.82
3428;BME280;1727;42.624;23.406;2023-04-27T02:17:42;94614.69;;;8.06;66.50
3428;BME280;1727;42.624;23.406;2023-04-27T02:20:10;94614.09;;;8.14;66.86
3428;BME280;1727;42.624;23.406;2023-04-27T02:22:40;94605.56;;;8.12;65.88
3428;BME280;1727;42.624;23.406;2023-04-27T02:25:08;94615.88;;;8.13;66.15
3428;BME280;1727;42.624;23.406;2023-04-27T02:27:36;94611.00;;;8.08;65.69
3428;BME280;1727;42.624;23.406;2023-04-27T02:30:04;94609.47;;;8.06;65.41
3428;BME280;1727;42.624;23.406;2023-04-27T02:32:32;94602.94;;;8.00;65.75
3428;BME280;1727;42.624;23.406;2023-04-27T02:35:02;94599.53;;;7.89;65.86
3428;BME280;1727;42.624;23.406;2023-04-27T02:37:29;94612.72;;;7.87;66.38
3428;BME280;1727;42.624;23.406;2023-04-27T02:39:56;94613.91;;;7.83;66.75
3428;BME280;1727;42.624;23.406;2023-04-27T02:42:26;94608.91;;;7.91;66.48
3428;BME280;1727;42.624;23.406;2023-04-27T02:44:53;94611.03;;;7.97;65.76
3428;BME280;1727;42.624;23.406;2023-04-27T02:47:20;94613.41;;;8.00;65.83
3428;BME280;1727;42.624;23.406;2023-04-27T02:49:48;94611.59;;;8.12;65.86
3428;BME280;1727;42.624;23.406;2023-04-27T02:52:15;94611.00;;;8.08;64.73
3428;BME280;1727;42.624;23.406;2023-04-27T02:54:41;94622.66;;;8.16;65.90
3428;BME280;1727;42.624;23.406;2023-04-27T02:57:08;94619.66;;;8.09;64.86
3428;BME280;1727;42.624;23.406;2023-04-27T02:59:35;94623.84;;;8.00;65.42
3428;BME280;1727;42.624;23.406;2023-04-27T03:02:02;94626.81;;;7.96;65.81
3428;BME280;1727;42.624;23.406;2023-04-27T03:04:29;94628.47;;;7.97;65.58
3428;BME280;1727;42.624;23.406;2023-04-27T03:06:57;94630.72;;;8.01;66.02
3428;BME280;1727;42.624;23.406;2023-04-27T03:09:24;94623.88;;;7.89;65.74
3428;BME280;1727;42.624;23.406;2023-04-27T03:11:51;94628.50;;;7.86;65.96
3428;BME280;1727;42.624;23.406;2023-04-27T03:14:18;94631.00;;;7.87;65.98
3428;BME280;1727;42.624;23.406;2023-04-27T03:16:44;94629.81;;;7.91;65.46
3428;BME280;1727;42.624;23.406;2023-04-27T03:19:11;94631.22;;;7.95;67.50
3428;BME280;1727;42.624;23.406;2023-04-27T03:21:38;94636.31;;;7.97;65.07
3428;BME280;1727;42.624;23.406;2023-04-27T03:24:06;94637.28;;;7.96;65.74
3428;BME280;1727;42.624;23.406;2023-04-27T03:26:33;94647.38;;;7.89;64.83
3428;BME280;1727;42.624;23.406;2023-04-27T03:29:00;94640.50;;;7.88;65.09
3428;BME280;1727;42.624;23.406;2023-04-27T03:31:27;94640.97;;;7.82;65.26
3428;BME280;1727;42.624;23.406;2023-04-27T03:33:53;94640.59;;;7.75;65.42
3428;BME280;1727;42.624;23.406;2023-04-27T03:36:21;94645.00;;;7.75;66.18
3428;BME280;1727;42.624;23.406;2023-04-27T03:38:48;94648.56;;;7.74;65.96
3428;BME280;1727;42.624;23.406;2023-04-27T03:41:16;94648.44;;;7.64;66.91
3428;BME280;1727;42.624;23.406;2023-04-27T03:43:43;94650.94;;;7.66;65.60
3428;BME280;1727;42.624;23.406;2023-04-27T03:46:09;94660.44;;;7.67;66.07
3428;BME280;1727;42.624;23.406;2023-04-27T03:48:36;94654.63;;;7.74;67.02
3428;BME280;1727;42.624;23.406;2023-04-27T03:51:04;94665.44;;;7.81;65.81
3428;BME280;1727;42.624;23.406;2023-04-27T03:53:31;94670.53;;;7.94;65.75
3428;BME280;1727;42.624;23.406;2023-04-27T03:55:57;94665.41;;;8.15;66.44
3428;BME280;1727;42.624;23.406;2023-04-27T03:58:26;94674.44;;;8.11;64.43
3428;BME280;1727;42.624;23.406;2023-04-27T04:00:53;94672.88;;;8.08;64.66
3428;BME280;1727;42.624;23.406;2023-04-27T04:03:21;94686.56;;;8.12;65.24
3428;BME280;1727;42.624;23.406;2023-04-27T04:05:48;94687.28;;;8.14;65.46
3428;BME280;1727;42.624;23.406;2023-04-27T04:08:15;94677.50;;;8.27;64.37
3428;BME280;1727;42.624;23.406;2023-04-27T04:10:41;94691.53;;;8.37;63.88
3428;BME280;1727;42.624;23.406;2023-04-27T04:13:08;94687.72;;;8.30;64.22
3428;BME280;1727;42.624;23.406;2023-04-27T04:15:36;94690.56;;;8.27;66.41
3428;BME280;1727;42.624;23.406;2023-04-27T04:18:03;94695.34;;;8.22;64.73
3428;BME280;1727;42.624;23.406;2023-04-27T04:20:32;94691.44;;;8.16;64.39
3428;BME280;1727;42.624;23.406;2023-04-27T04:23:05;94700.22;;;8.15;nan
3428;BME280;1727;42.624;23.406;2023-04-27T04:25:32;94704.16;;;8.10;63.31
3428;BME280;1727;42.624;23.406;2023-04-27T04:27:59;94706.97;;;8.18;65.02
3428;BME280;1727;42.624;23.406;2023-04-27T04:30:26;94706.97;;;8.18;65.94
3428;BME280;1727;42.624;23.406;2023-04-27T04:32:54;94711.75;;;8.13;64.09
3428;BME280;1727;42.624;23.406;2023-04-27T04:35:21;94714.13;;;8.16;64.19
3428;BME280;1727;42.624;23.406;2023-04-27T04:37:48;94711.25;;;8.19;64.30
3428;BME280;1727;42.624;23.406;2023-04-27T04:40:14;94715.19;;;8.13;64.55
3428;BME280;1727;42.624;23.406;2023-04-27T04:42:41;94720.75;;;8.20;66.07
3428;BME280;1727;42.624;23.406;2023-04-27T04:45:09;94720.53;;;8.12;63.44
3428;BME280;1727;42.624;23.406;2023-04-27T04:47:36;94725.03;;;8.21;64.80
3428;BME280;1727;42.624;23.406;2023-04-27T04:50:06;94723.34;;;8.31;64.89
3428;BME280;1727;42.624;23.406;2023-04-27T04:52:34;94728.97;;;8.37;63.44
3428;BME280;1727;42.624;23.406;2023-04-27T04:55:01;94732.19;;;8.41;63.22
3428;BME280;1727;42.624;23.406;2023-04-27T04:57:28;94740.25;;;8.49;67.64
3428;BME280;1727;42.624;23.406;2023-04-27T04:59:55;94738.09;;;8.54;63.45
3428;BME280;1727;42.624;23.406;2023-04-27T05:02:22;94732.53;;;8.48;63.02
3428;BME280;1727;42.624;23.406;2023-04-27T05:04:49;94747.84;;;8.52;63.49
3428;BME280;1727;42.624;23.406;2023-04-27T05:07:18;94745.47;;;8.49;62.61
3428;BME280;1727;42.624;23.406;2023-04-27T05:09:45;94755.44;;;8.55;62.94
3428;BME280;1727;42.624;23.406;2023-04-27T05:12:12;94749.03;;;8.59;63.32
3428;BME280;1727;42.624;23.406;2023-04-27T05:14:38;94755.22;;;8.58;61.73
3428;BME280;1727;42.624;23.406;2023-04-27T05:17:05;94759.94;;;8.76;61.70
3428;BME280;1727;42.624;23.406;2023-04-27T05:19:32;94754.41;;;8.90;62.46
3428;BME280;1727;42.624;23.406;2023-04-27T05:21:59;94758.69;;;9.02;62.05
3428;BME280;1727;42.624;23.406;2023-04-27T05:24:27;94757.34;;;9.08;61.28
3428;BME280;1727;42.624;23.406;2023-04-27T05:26:54;94765.59;;;9.03;62.78
3428;BME280;1727;42.624;23.406;2023-04-27T05:29:21;94768.00;;;8.84;61.86
3428;BME280;1727;42.624;23.406;2023-04-27T05:31:48;94764.22;;;8.77;61.66
3428;BME280;1727;42.624;23.406;2023-04-27T05:34:15;94767.34;;;8.71;64.17
3428;BME280;1727;42.624;23.406;2023-04-27T05:36:41;94761.25;;;8.70;61.44
3428;BME280;1727;42.624;23.406;2023-04-27T05:39:08;94763.38;;;8.76;62.61
3428;BME280;1727;42.624;23.406;2023-04-27T05:41:37;94770.88;;;8.81;62.20
3428;BME280;1727;42.624;23.406;2023-04-27T05:44:04;94773.22;;;8.84;63.22
3428;BME280;1727;42.624;23.406;2023-04-27T05:46:31;94774.78;;;8.86;61.21
3428;BME280;1727;42.624;23.406;2023-04-27T05:48:58;94753.56;;;9.00;65.22
3428;BME280;1727;42.624;23.406;2023-04-27T05:51:25;94763.47;;;8.97;62.62
3428;BME280;1727;42.624;23.406;2023-04-27T05:53:53;94777.59;;;8.94;61.13
3428;BME280;1727;42.624;23.406;2023-04-27T05:56:20;94774.78;;;8.86;60.44
3428;BME280;1727;42.624;23.406;2023-04-27T05:58:48;94768.00;;;8.84;61.55
3428;BME280;1727;42.624;23.406;2023-04-27T06:01:14;94769.19;;;8.80;63.28
3428;BME280;1727;42.624;23.406;2023-04-27T06:03:41;94772.44;;;8.72;62.41
3428;BME280;1727;42.624;23.406;2023-04-27T06:06:08;94768.50;;;8.78;63.21
3428;BME280;1727;42.624;23.406;2023-04-27T06:08:35;94770.75;;;8.82;63.02
3428;BME280;1727;42.624;23.406;2023-04-27T06:11:04;94782.38;;;8.89;62.46
3428;BME280;1727;42.624;23.406;2023-04-27T06:13:30;94771.19;;;8.87;66.04
3428;BME280;1727;42.624;23.406;2023-04-27T06:15:59;94773.19;;;8.95;63.09
3428;BME280;1727;42.624;23.406;2023-04-27T06:18:25;94780.44;;;9.03;62.92
3428;BME280;1727;42.624;23.406;2023-04-27T06:20:56;94774.59;;;9.10;62.27
3428;BME280;1727;42.624;23.406;2023-04-27T06:23:23;94771.78;;;9.23;63.05
3428;BME280;1727;42.624;23.406;2023-04-27T06:25:50;94767.66;;;9.20;62.30
3428;BME280;1727;42.624;23.406;2023-04-27T06:28:17;94769.97;;;9.35;61.53
3428;BME280;1727;42.624;23.406;2023-04-27T06:30:43;94776.38;;;9.42;61.04
3428;BME280;1727;42.624;23.406;2023-04-27T06:33:12;94775.34;;;9.54;60.25
3428;BME280;1727;42.624;23.406;2023-04-27T06:35:38;94773.78;;;9.62;61.64
3428;BME280;1727;42.624;23.406;2023-04-27T06:38:05;94770.97;;;9.75;61.57
3428;BME280;1727;42.624;23.406;2023-04-27T06:40:32;94770.22;;;9.84;59.99
3428;BME280;1727;42.624;23.406;2023-04-27T06:42:59;94774.72;;;9.82;61.77
3428;BME280;1727;42.624;23.406;2023-04-27T06:45:26;94776.34;;;9.94;60.31
3428;BME280;1727;42.624;23.406;2023-04-27T06:47:52;94771.09;;;9.94;61.03
3428;BME280;1727;42.624;23.406;2023-04-27T06:50:20;94767.38;;;9.97;60.06
3428;BME280;1727;42.624;23.406;2023-04-27T06:52:47;94766.28;;;10.00;60.63
3428;BME280;1727;42.624;23.406;2023-04-27T06:55:14;94777.66;;;10.10;60.96
3428;BME280;1727;42.624;23.406;2023-04-27T06:57:41;94759.97;;;10.23;59.89
3428;BME280;1727;42.624;23.406;2023-04-27T07:00:08;94765.66;;;10.38;59.43
3428;BME280;1727;42.624;23.406;2023-04-27T07:02:37;94764.56;;;10.40;57.87
3428;BME280;1727;42.624;23.406;2023-04-27T07:05:04;94768.88;;;10.41;59.44
3428;BME280;1727;42.624;23.406;2023-04-27T07:07:32;94764.75;;;10.48;59.54
3428;BME280;1727;42.624;23.406;2023-04-27T07:09:59;94766.59;;;10.67;58.48
3428;BME280;1727;42.624;23.406;2023-04-27T07:12:26;94768.31;;;10.88;57.97
3428;BME280;1727;42.624;23.406;2023-04-27T07:14:53;94772.00;;;11.35;58.21
3428;BME280;1727;42.624;23.406;2023-04-27T07:17:20;94770.31;;;11.82;55.43
3428;BME280;1727;42.624;23.406;2023-04-27T07:19:47;94766.50;;;12.23;53.45
3428;BME280;1727;42.624;23.406;2023-04-27T07:22:13;94770.34;;;12.66;54.19
3428;BME280;1727;42.624;23.406;2023-04-27T07:24:41;94761.78;;;12.91;53.82
3428;BME280;1727;42.624;23.406;2023-04-27T07:27:08;94771.03;;;12.95;51.84
3428;BME280;1727;42.624;23.406;2023-04-27T07:29:35;94758.13;;;12.75;51.63
3428;BME280;1727;42.624;23.406;2023-04-27T07:32:04;94757.78;;;12.60;52.19
3428;BME280;1727;42.624;23.406;2023-04-27T07:34:31;94759.34;;;12.53;52.92
3428;BME280;1727;42.624;23.406;2023-04-27T07:36:58;94765.69;;;12.60;52.08
3428;BME280;1727;42.624;23.406;2023-04-27T07:39:25;94763.41;;;12.75;52.91
3428;BME280;1727;42.624;23.406;2023-04-27T07:41:53;94761.84;;;12.82;51.66
3428;BME280;1727;42.624;23.406;2023-04-27T07:44:20;94763.28;;;12.94;50.99
3428;BME280;1727;42.624;23.406;2023-04-27T07:46:47;94758.63;;;13.33;50.65
3428;BME280;1727;42.624;23.406;2023-04-27T07:49:14;94768.28;;;13.42;49.31
3428;BME280;1727;42.624;23.406;2023-04-27T07:51:41;94759.53;;;13.59;48.07
3428;BME280;1727;42.624;23.406;2023-04-27T07:54:08;94757.69;;;13.78;50.24
3428;BME280;1727;42.624;23.406;2023-04-27T07:56:35;94757.59;;;13.87;49.87
3428;BME280;1727;42.624;23.406;2023-04-27T07:59:03;94752.56;;;13.94;47.49
3428;BME280;1727;42.624;23.406;2023-04-27T08:01:30;94749.28;;;14.18;48.59
3428;BME280;1727;42.624;23.406;2023-04-27T08:03:57;94750.25;;;14.17;46.49
3428;BME280;1727;42.624;23.406;2023-04-27T08:06:23;94756.75;;;14.31;46.20
3428;BME280;1727;42.624;23.406;2023-04-27T08:08:53;94740.91;;;14.48;46.18
3428;BME280;1727;42.624;23.406;2023-04-27T08:11:22;94748.69;;;14.58;46.66
3428;BME280;1727;42.624;23.406;2023-04-27T08:13:49;94746.56;;;14.62;45.16
3428;BME280;1727;42.624;23.406;2023-04-27T08:16:17;94750.97;;;14.53;45.50
3428;BME280;1727;42.624;23.406;2023-04-27T08:18:44;94756.47;;;14.42;45.74
3428;BME280;1727;42.624;23.406;2023-04-27T08:21:11;94747.66;;;14.25;45.61
3428;BME280;1727;42.624;23.406;2023-04-27T08:23:37;94747.50;;;14.01;45.95
3428;BME280;1727;42.624;23.406;2023-04-27T08:26:04;94751.06;;;13.91;46.09
3428;BME280;1727;42.624;23.406;2023-04-27T08:28:31;94751.44;;;13.97;46.38
3428;BME280;1727;42.624;23.406;2023-04-27T08:30:58;94752.13;;;13.81;45.77
3428;BME280;1727;42.624;23.406;2023-04-27T08:33:26;94744.09;;;13.64;46.67
3428;BME280;1727;42.624;23.406;2023-04-27T08:35:53;94751.34;;;13.62;46.64
3428;BME280;1727;42.624;23.406;2023-04-27T08:38:20;94749.06;;;13.68;47.82
3428;BME280;1727;42.624;23.406;2023-04-27T08:40:46;94751.75;;;13.58;47.63
3428;BME280;1727;42.624;23.406;2023-04-27T08:43:13;94742.97;;;13.49;47.34
3428;BME280;1727;42.624;23.406;2023-04-27T08:45:46;94744.09;;;13.47;48.82
3428;BME280;1727;42.624;23.406;2023-04-27T08:48:13;94751.25;;;13.54;48.89
3428;BME280;1727;42.624;23.406;2023-04-27T08:50:43;94755.63;;;13.63;48.54
3428;BME280;1727;42.624;23.406;2023-04-27T08:53:16;94752.69;;;13.67;48.16
3428;BME280;1727;42.624;23.406;2023-04-27T08:55:42;94747.72;;;13.63;47.88
3428;BME280;1727;42.624;23.406;2023-04-27T08:58:09;94753.56;;;13.75;48.54
3428;BME280;1727;42.624;23.406;2023-04-27T09:00:37;94743.75;;;13.85;48.12
3428;BME280;1727;42.624;23.406;2023-04-27T09:03:06;94752.47;;;13.86;47.94
3428;BME280;1727;42.624;23.406;2023-04-27T09:05:33;94748.50;;;13.82;47.30
3428;BME280;1727;42.624;23.406;2023-04-27T09:08:02;94745.94;;;13.90;48.48
3428;BME280;1727;42.624;23.406;2023-04-27T09:10:43;94737.38;;;13.88;47.36
3428;BME280;1727;42.624;23.406;2023-04-27T09:13:09;94744.16;;;13.73;47.89
3428;BME280;1727;42.624;23.406;2023-04-27T09:15:44;94742.34;;;13.55;48.31
3428;BME280;1727;42.624;23.406;2023-04-27T09:18:14;94737.31;;;13.62;49.03
3428;BME280;1727;42.624;23.406;2023-04-27T09:20:43;94741.16;;;13.68;48.57
3428;BME280;1727;42.624;23.406;2023-04-27T09:23:24;94739.69;;;13.73;47.42
3428;BME280;1727;42.624;23.406;2023-04-27T09:25:52;94736.91;;;13.75;46.94
3428;BME280;1727;42.624;23.406;2023-04-27T09:28:19;94739.13;;;14.05;47.29
3428;BME280;1727;42.624;23.406;2023-04-27T09:30:57;94725.56;;;14.52;46.53
3428;BME280;1727;42.624;23.406;2023-04-27T09:33:26;94730.84;;;14.94;45.09
3428;BME280;1727;42.624;23.406;2023-04-27T09:35:53;94721.31;;;15.09;44.19
3428;BME280;1727;42.624;23.406;2023-04-27T09:38:23;94718.84;;;15.16;43.30
3428;BME280;1727;42.624;23.406;2023-04-27T09:40:51;94707.38;;;14.83;42.87
3428;BME280;1727;42.624;23.406;2023-04-27T09:43:18;94703.19;;;14.72;43.22
3428;BME280;1727;42.624;23.406;2023-04-27T09:45:47;94711.94;;;14.73;44.53
3428;BME280;1727;42.624;23.406;2023-04-27T09:48:14;94707.19;;;14.76;44.52
3428;BME280;1727;42.624;23.406;2023-04-27T09:50:42;94700.50;;;14.56;44.07
3428;BME280;1727;42.624;23.406;2023-04-27T09:53:11;94700.63;;;14.46;44.15
3428;BME280;1727;42.624;23.406;2023-04-27T09:55:43;94704.22;;;14.45;46.35
3428;BME280;1727;42.624;23.406;2023-04-27T09:58:34;94695.22;;;14.56;43.78
3428;BME280;1727;42.624;23.406;2023-04-27T10:01:08;94695.72;;;14.60;45.50
3428;BME280;1727;42.624;23.406;2023-04-27T10:03:44;94703.06;;;14.82;44.75
3428;BME280;1727;42.624;23.406;2023-04-27T10:09:09;94696.19;;;15.05;44.24
3428;BME280;1727;42.624;23.406;2023-04-27T10:11:41;94689.22;;;14.88;42.49
3428;BME280;1727;42.624;23.406;2023-04-27T10:14:13;94703.75;;;14.92;43.93
3428;BME280;1727;42.624;23.406;2023-04-27T10:16:45;94686.41;;;14.98;43.41
3428;BME280;1727;42.624;23.406;2023-04-27T10:19:12;94686.91;;;14.93;43.60
3428;BME280;1727;42.624;23.406;2023-04-27T10:21:51;94689.28;;;14.62;42.38
3428;BME280;1727;42.624;23.406;2023-04-27T10:24:18;94693.06;;;14.51;43.32
3428;BME280;1727;42.624;23.406;2023-04-27T10:26:46;94685.63;;;14.47;42.99
3428;BME280;1727;42.624;23.406;2023-04-27T10:29:14;94689.25;;;14.46;42.95
3428;BME280;1727;42.624;23.406;2023-04-27T10:31:43;94695.09;;;14.40;43.25
3428;BME280;1727;42.624;23.406;2023-04-27T10:34:16;94691.25;;;14.26;44.14
3428;BME280;1727;42.624;23.406;2023-04-27T10:36:43;94689.41;;;14.18;45.01
3428;BME280;1727;42.624;23.406;2023-04-27T10:39:14;94684.22;;;14.09;43.45
3428;BME280;1727;42.624;23.406;2023-04-27T10:41:49;94688.31;;;14.03;44.25
3428;BME280;1727;42.624;23.406;2023-04-27T10:44:17;94689.75;;;14.23;43.45
3428;BME280;1727;42.624;23.406;2023-04-27T10:46:51;94685.69;;;14.37;44.42
3428;BME280;1727;42.624;23.406;2023-04-27T10:49:18;94692.09;;;14.35;44.84
3428;BME280;1727;42.624;23.406;2023-04-27T10:51:46;94691.47;;;14.41;43.54
3428;BME280;1727;42.624;23.406;2023-04-27T10:54:12;94684.09;;;14.44;42.67
3428;BME280;1727;42.624;23.406;2023-04-27T10:56:40;94686.44;;;14.47;42.79
3428;BME280;1727;42.624;23.406;2023-04-27T10:59:08;94687.25;;;14.48;42.56
3428;BME280;1727;42.624;23.406;2023-04-27T11:01:36;94692.28;;;14.41;42.53
3428;BME280;1727;42.624;23.406;2023-04-27T11:04:03;94674.59;;;14.25;41.69
3428;BME280;1727;42.624;23.406;2023-04-27T11:06:30;94673.19;;;14.13;42.62
3428;BME280;1727;42.624;23.406;2023-04-27T11:08:58;94675.41;;;13.92;42.48
3428;BME280;1727;42.624;23.406;2023-04-27T11:11:25;94676.16;;;13.84;43.75
3428;BME280;1727;42.624;23.406;2023-04-27T11:13:52;94677.28;;;13.82;42.72
3428;BME280;1727;42.624;23.406;2023-04-27T11:16:21;94672.91;;;13.90;43.38
3428;BME280;1727;42.624;23.406;2023-04-27T11:18:51;94678.28;;;14.07;43.03
3428;BME280;1727;42.624;23.406;2023-04-27T11:21:18;94669.88;;;14.11;43.03
3428;BME280;1727;42.624;23.406;2023-04-27T11:23:46;94673.19;;;14.13;42.36
3428;BME280;1727;42.624;23.406;2023-04-27T11:26:14;94684.06;;;14.10;41.67
3428;BME280;1727;42.624;23.406;2023-04-27T11:28:42;94681.38;;;14.02;42.29
3428;BME280;1727;42.624;23.406;2023-04-27T11:31:09;94685.28;;;13.90;42.13
3428;BME280;1727;42.624;23.406;2023-04-27T11:33:38;94692.81;;;13.85;42.58
3428;BME280;1727;42.624;23.406;2023-04-27T11:36:15;94687.91;;;13.90;43.00
3428;BME280;1727;42.624;23.406;2023-04-27T11:38:42;94687.91;;;13.90;41.01
3428;BME280;1727;42.624;23.406;2023-04-27T11:41:09;94680.50;;;13.68;42.25
3428;BME280;1727;42.624;23.406;2023-04-27T11:43:36;94691.00;;;13.59;43.53
3428;BME280;1727;42.624;23.406;2023-04-27T11:46:06;94683.91;;;13.60;44.26
3428;BME280;1727;42.624;23.406;2023-04-27T11:48:35;94681.88;;;13.54;42.93
3428;BME280;1727;42.624;23.406;2023-04-27T11:51:04;94697.69;;;13.54;43.67
3428;BME280;1727;42.624;23.406;2023-04-27T11:53:33;94686.31;;;13.53;44.02
3428;BME280;1727;42.624;23.406;2023-04-27T11:56:01;94697.81;;;13.70;45.66
3428;BME280;1727;42.624;23.406;2023-04-27T11:58:32;94692.44;;;13.80;43.32
3428;BME280;1727;42.624;23.406;2023-04-27T12:00:59;94689.41;;;13.92;43.68
3428;BME280;1727;42.624;23.406;2023-04-27T12:03:27;94693.22;;;13.98;43.45
3428;BME280;1727;42.624;23.406;2023-04-27T12:05:55;94695.00;;;13.89;43.39
3428;BME280;1727;42.624;23.406;2023-04-27T12:08:23;94691.00;;;13.85;43.02
3428;BME280;1727;42.624;23.406;2023-04-27T12:10:50;94697.41;;;13.83;44.27
3428;BME280;1727;42.624;23.406;2023-04-27T12:13:17;94701.19;;;13.80;42.86
3428;BME280;1727;42.624;23.406;2023-04-27T12:15:44;94707.78;;;13.84;43.55
3428;BME280;1727;42.624;23.406;2023-04-27T12:18:11;94697.91;;;13.86;42.75
3428;BME280;1727;42.624;23.406;2023-04-27T12:20:38;94704.63;;;13.99;43.54
3428;BME280;1727;42.624;23.406;2023-04-27T12:23:05;94704.28;;;14.02;43.04
3428;BME280;1727;42.624;23.406;2023-04-27T12:25:33;94701.78;;;13.92;43.14
3428;BME280;1727;42.624;23.406;2023-04-27T12:28:00;94705.84;;;13.86;42.95
3428;BME280;1727;42.624;23.406;2023-04-27T12:30:27;94707.28;;;13.81;43.83
3428;BME280;1727;42.624;23.406;2023-04-27T12:36:16;94708.56;;;13.77;43.74
3428;BME280;1727;42.624;23.406;2023-04-27T12:38:43;94704.28;;;13.76;43.50
3428;BME280;1727;42.624;23.406;2023-04-27T12:41:11;94710.44;;;13.84;42.85
3428;BME280;1727;42.624;23.406;2023-04-27T12:43:38;94701.25;;;13.88;43.22
3428;BME280;1727;42.624;23.406;2023-04-27T12:46:05;94702.13;;;13.97;43.68
3428;BME280;1727;42.624;23.406;2023-04-27T12:48:33;94707.81;;;14.10;42.88
3428;BME280;1727;42.624;23.406;2023-04-27T12:51:00;94706.81;;;14.11;42.55
3428;BME280;1727;42.624;23.406;2023-04-27T12:53:27;94705.31;;;14.09;43.26
3428;BME280;1727;42.624;23.406;2023-04-27T12:55:53;94704.13;;;14.03;43.69
3428;BME280;1727;42.624;23.406;2023-04-27T12:58:22;94698.72;;;14.05;46.27
3428;BME280;1727;42.624;23.406;2023-04-27T13:00:49;94708.13;;;14.07;42.61
3428;BME280;1727;42.624;23.406;2023-04-27T13:03:16;94709.78;;;14.08;43.74
3428;BME280;1727;42.624;23.406;2023-04-27T13:05:42;94697.72;;;14.06;44.23
3428;BME280;1727;42.624;23.406;2023-04-27T13:08:10;94705.47;;;14.07;43.48
3428;BME280;1727;42.624;23.406;2023-04-27T13:10:39;94705.59;;;14.23;43.81
3428;BME280;1727;42.624;23.406;2023-04-27T13:13:07;94703.41;;;14.45;44.63
3428;BME280;1727;42.624;23.406;2023-04-27T13:15:35;94697.88;;;14.64;43.71
3428;BME280;1727;42.624;23.406;2023-04-27T13:18:02;94702.16;;;14.57;42.14
3428;BME280;1727;42.624;23.406;2023-04-27T13:20:31;94692.63;;;14.38;43.25
3428;BME280;1727;42.624;23.406;2023-04-27T13:22:58;94698.56;;;14.40;42.62
3428;BME280;1727;42.624;23.406;2023-04-27T13:25:25;94694.94;;;14.41;42.20